createdAt,value
2023-03-01T00:01:24.642Z,0.50
2023-03-01T00:03:53.213Z,0.50
2023-03-01T00:06:21.538Z,0.40
2023-03-01T00:08:49.521Z,0.40
2023-03-01T00:11:19.720Z,0.40
2023-03-01T00:13:49.798Z,0.40
2023-03-01T00:16:24.297Z,0.30
2023-03-01T00:18:51.935Z,0.30
2023-03-01T00:21:22.492Z,0.30
2023-03-01T00:23:50.548Z,0.20
2023-03-01T00:26:19.508Z,0.20
2023-03-01T00:28:47.567Z,0.10
2023-03-01T00:31:23.548Z,0.10
2023-03-01T00:33:57.885Z,0.00
2023-03-01T00:36:27.426Z,0.00
2023-03-01T00:38:55.587Z,0.00
2023-03-01T00:41:23.948Z,0.00
2023-03-01T00:43:51.458Z,0.00
2023-03-01T00:46:21.632Z,-0.10
2023-03-01T00:48:50.259Z,-0.10
2023-03-01T00:51:23.282Z,-0.10
2023-03-01T00:53:55.870Z,-0.20
2023-03-01T00:56:23.806Z,-0.20
2023-03-01T00:58:51.906Z,-0.20
2023-03-01T01:01:23.532Z,-0.20
2023-03-01T01:03:54.105Z,-0.20
2023-03-01T01:06:24.695Z,-0.20
2023-03-01T01:08:53.803Z,-0.20
2023-03-01T01:11:23.166Z,-0.30
2023-03-01T01:13:51.138Z,-0.30
2023-03-01T01:16:20.395Z,-0.30
2023-03-01T01:18:47.955Z,-0.30
2023-03-01T01:21:17.767Z,-0.30
2023-03-01T01:23:46.397Z,-0.30
2023-03-01T01:26:23.400Z,-0.30
2023-03-01T01:28:51.926Z,-0.40
2023-03-01T01:31:19.971Z,-0.40
2023-03-01T01:33:48.002Z,-0.40
2023-03-01T01:36:15.408Z,-0.40
2023-03-01T01:38:43.330Z,-0.40
2023-03-01T01:41:12.417Z,-0.40
2023-03-01T01:43:42.946Z,-0.40
2023-03-01T01:46:26.819Z,-0.40
2023-03-01T01:48:59.652Z,-0.50
2023-03-01T01:51:39.566Z,-0.50
2023-03-01T01:54:20.806Z,-0.50
2023-03-01T01:56:56.139Z,-0.60
2023-03-01T01:59:26.810Z,-0.60
2023-03-01T02:01:55.215Z,-0.60
2023-03-01T02:04:23.701Z,-0.60
2023-03-01T02:07:19.183Z,-0.70
2023-03-01T02:09:48.996Z,-0.70
2023-03-01T02:12:19.437Z,-0.70
2023-03-01T02:14:46.913Z,-0.70
2023-03-01T02:17:17.132Z,-0.70
2023-03-01T02:20:08.461Z,-0.70
2023-03-01T02:22:39.053Z,-0.80
2023-03-01T02:25:09.396Z,-0.80
2023-03-01T02:27:45.799Z,-0.80
2023-03-01T02:30:13.419Z,-0.80
2023-03-01T02:32:42.692Z,-0.80
2023-03-01T02:35:16.424Z,-0.80
2023-03-01T02:37:44.995Z,-0.80
2023-03-01T02:40:18.206Z,-0.80
2023-03-01T02:42:54.782Z,-0.80
2023-03-01T02:45:24.003Z,-0.80
2023-03-01T02:47:54.333Z,-0.90
2023-03-01T02:50:53.113Z,-0.90
2023-03-01T02:53:28.616Z,-0.90
2023-03-01T02:55:56.424Z,-0.90
2023-03-01T02:58:23.995Z,-0.90
2023-03-01T03:00:52.967Z,-0.90
2023-03-01T03:03:22.932Z,-0.90
2023-03-01T03:05:50.476Z,-1.00
2023-03-01T03:08:24.746Z,-0.90
2023-03-01T03:10:52.861Z,-0.90
2023-03-01T03:13:20.476Z,-1.00
2023-03-01T03:15:48.409Z,-1.00
2023-03-01T03:18:17.969Z,-0.90
2023-03-01T03:20:46.176Z,-1.10
2023-03-01T03:23:14.182Z,-1.10
2023-03-01T03:25:41.603Z,-1.10
2023-03-01T03:28:12.325Z,-1.10
2023-03-01T03:30:41.290Z,-1.10
2023-03-01T03:33:12.960Z,-1.10
2023-03-01T03:35:47.073Z,-1.10
2023-03-01T03:38:16.689Z,-1.20
2023-03-01T03:40:44.126Z,-1.20
2023-03-01T03:43:31.101Z,-1.20
2023-03-01T03:45:58.633Z,-1.20
2023-03-01T03:48:27.067Z,-1.20
2023-03-01T03:50:57.002Z,-1.10
2023-03-01T03:53:26.275Z,-1.30
2023-03-01T03:55:54.705Z,-1.30
2023-03-01T03:58:24.500Z,-1.30
2023-03-01T04:00:57.092Z,-1.30
2023-03-01T04:03:26.468Z,-1.30
2023-03-01T04:05:54.157Z,-1.30
2023-03-01T04:08:23.746Z,-1.30
2023-03-01T04:10:53.539Z,-1.30
2023-03-01T04:13:23.221Z,-1.30
2023-03-01T04:15:52.608Z,-1.40
2023-03-01T04:18:22.679Z,-1.40
2023-03-01T04:20:53.073Z,-1.40
2023-03-01T04:23:21.784Z,-1.40
2023-03-01T04:25:54.721Z,-1.40
2023-03-01T04:28:27.367Z,-1.50
2023-03-01T04:30:56.363Z,-1.50
2023-03-01T04:33:25.556Z,-1.50
2023-03-01T04:35:53.158Z,-1.50
2023-03-01T04:38:22.297Z,-1.40
2023-03-01T04:40:49.881Z,-1.50
2023-03-01T04:43:18.499Z,-1.40
2023-03-01T04:45:46.075Z,-1.60
2023-03-01T04:48:13.488Z,-1.60
2023-03-01T04:50:42.158Z,-1.60
2023-03-01T04:53:09.528Z,-1.60
2023-03-01T04:55:36.860Z,-1.60
2023-03-01T04:58:04.272Z,-1.60
2023-03-01T05:00:31.726Z,-1.50
2023-03-01T05:03:01.549Z,-1.60
2023-03-01T05:05:39.008Z,-1.60
2023-03-01T05:08:09.127Z,-1.70
2023-03-01T05:10:37.654Z,-1.60
2023-03-01T05:13:05.232Z,-1.70
2023-03-01T05:15:33.584Z,-1.70
2023-03-01T05:18:01.720Z,-1.70
2023-03-01T05:20:30.844Z,-1.70
2023-03-01T05:23:00.644Z,-1.70
2023-03-01T05:25:33.940Z,-1.80
2023-03-01T05:28:05.230Z,-1.80
2023-03-01T05:30:34.489Z,-1.80
2023-03-01T05:33:02.928Z,-1.80
2023-03-01T05:35:30.605Z,-1.80
2023-03-01T05:37:58.164Z,-1.70
2023-03-01T05:40:26.549Z,-1.80
2023-03-01T05:42:57.087Z,-1.80
2023-03-01T05:45:26.969Z,-1.60
2023-03-01T05:47:56.054Z,-1.80
2023-03-01T05:50:29.842Z,-1.80
2023-03-01T05:53:03.781Z,-1.80
2023-03-01T05:55:32.087Z,-1.80
2023-03-01T05:58:01.515Z,-1.80
2023-03-01T06:00:30.205Z,-1.80
2023-03-01T06:03:00.732Z,-1.70
2023-03-01T06:05:29.380Z,-1.80
2023-03-01T06:08:00.773Z,-1.80
2023-03-01T06:10:28.411Z,-1.80
2023-03-01T06:12:56.455Z,-1.80
2023-03-01T06:15:24.225Z,-1.80
2023-03-01T06:17:52.151Z,-1.80
2023-03-01T06:20:22.227Z,-1.80
2023-03-01T06:22:50.417Z,-1.80
2023-03-01T06:25:20.723Z,-1.80
2023-03-01T06:27:49.627Z,-1.70
2023-03-01T06:30:21.080Z,-1.70
2023-03-01T06:32:49.482Z,-1.70
2023-03-01T06:35:19.062Z,-1.60
2023-03-01T06:37:48.422Z,-1.50
2023-03-01T06:40:16.734Z,-1.50
2023-03-01T06:42:50.118Z,-1.40
2023-03-01T06:45:21.498Z,-1.30
2023-03-01T06:47:49.635Z,-1.20
2023-03-01T06:50:18.717Z,-1.10
2023-03-01T06:55:14.875Z,-0.50
2023-03-01T06:57:43.771Z,0.00
2023-03-01T07:00:11.858Z,0.40
2023-03-01T07:02:39.355Z,0.90
2023-03-01T07:05:08.410Z,1.50
2023-03-01T07:07:35.861Z,2.10
2023-03-01T07:10:03.727Z,2.60
2023-03-01T07:12:31.200Z,3.00
2023-03-01T07:14:58.572Z,3.40
2023-03-01T07:17:26.078Z,3.90
2023-03-01T07:19:53.530Z,4.20
2023-03-01T07:22:20.961Z,4.60
2023-03-01T07:24:48.324Z,5.00
2023-03-01T07:27:15.734Z,5.50
2023-03-01T07:29:43.153Z,5.90
2023-03-01T07:32:11.705Z,6.40
2023-03-01T07:34:39.146Z,6.90
2023-03-01T07:37:06.589Z,7.40
2023-03-01T07:39:33.986Z,7.90
2023-03-01T07:42:01.547Z,8.50
2023-03-01T07:44:29.239Z,9.00
2023-03-01T07:46:59.117Z,9.40
2023-03-01T07:49:27.569Z,9.90
2023-03-01T07:51:55.042Z,10.30
2023-03-01T07:54:22.838Z,10.70
2023-03-01T07:56:50.298Z,11.10
2023-03-01T07:59:17.699Z,11.50
2023-03-01T08:01:45.142Z,11.80
2023-03-01T08:04:12.674Z,12.20
2023-03-01T08:06:40.071Z,12.50
2023-03-01T08:09:08.842Z,12.80
2023-03-01T08:11:36.264Z,13.10
2023-03-01T08:14:03.537Z,13.50
2023-03-01T08:16:31.674Z,13.80
2023-03-01T08:19:03.886Z,14.00
2023-03-01T08:21:31.231Z,14.30
2023-03-01T08:23:58.562Z,14.50
2023-03-01T08:26:25.805Z,14.70
2023-03-01T08:28:54.617Z,14.90
2023-03-01T08:31:25.011Z,15.20
2023-03-01T08:33:57.336Z,15.30
2023-03-01T08:36:30.518Z,15.40
2023-03-01T08:38:58.776Z,15.70
2023-03-01T08:41:26.216Z,15.80
2023-03-01T08:43:59.283Z,16.00
2023-03-01T08:46:32.494Z,16.10
2023-03-01T08:49:00.288Z,16.20
2023-03-01T08:51:28.076Z,16.40
2023-03-01T08:53:55.492Z,16.50
2023-03-01T08:56:23.017Z,16.60
2023-03-01T08:58:50.643Z,16.60
2023-03-01T09:01:19.776Z,16.50
2023-03-01T09:03:47.714Z,16.50
2023-03-01T09:06:15.514Z,16.40
2023-03-01T09:08:45.665Z,16.20
2023-03-01T09:11:16.934Z,15.90
2023-03-01T09:13:45.708Z,15.60
2023-03-01T09:16:15.207Z,15.20
2023-03-01T09:18:43.022Z,14.70
2023-03-01T09:21:13.188Z,14.30
2023-03-01T09:23:43.183Z,13.90
2023-03-01T09:26:13.824Z,13.40
2023-03-01T09:28:45.267Z,13.00
2023-03-01T09:31:14.029Z,12.60
2023-03-01T09:33:43.072Z,12.20
2023-03-01T09:36:15.532Z,11.90
2023-03-01T09:38:43.289Z,11.50
2023-03-01T09:41:39.137Z,11.20
2023-03-01T09:44:19.472Z,10.90
2023-03-01T09:46:47.521Z,10.70
2023-03-01T09:49:28.754Z,10.50
2023-03-01T09:52:17.032Z,10.20
2023-03-01T09:54:44.433Z,10.10
2023-03-01T09:57:30.766Z,9.90
2023-03-01T10:00:10.360Z,9.70
2023-03-01T10:02:57.033Z,9.60
2023-03-01T10:05:51.012Z,9.50
2023-03-01T10:08:42.569Z,9.40
2023-03-01T10:11:26.953Z,9.30
2023-03-01T10:14:08.002Z,9.30
2023-03-01T10:16:59.680Z,9.20
2023-03-01T10:19:41.333Z,9.20
2023-03-01T10:22:29.007Z,9.20
2023-03-01T10:25:03.288Z,9.20
2023-03-01T10:27:50.251Z,9.20
2023-03-01T10:30:23.636Z,9.20
2023-03-01T10:32:54.005Z,9.20
2023-03-01T10:35:28.034Z,9.20
2023-03-01T10:38:16.778Z,9.20
2023-03-01T10:40:58.023Z,9.20
2023-03-01T10:43:27.341Z,9.20
2023-03-01T10:45:54.786Z,9.20
2023-03-01T10:48:26.980Z,9.20
2023-03-01T10:51:00.613Z,9.30
2023-03-01T10:53:50.301Z,9.20
2023-03-01T10:56:17.884Z,9.20
2023-03-01T10:59:01.527Z,9.20
2023-03-01T11:01:33.853Z,9.20
2023-03-01T11:04:08.447Z,9.20
2023-03-01T11:06:41.245Z,9.20
2023-03-01T11:09:23.388Z,9.20
2023-03-01T11:11:58.619Z,9.10
2023-03-01T11:14:47.508Z,9.10
2023-03-01T11:17:31.670Z,9.10
2023-03-01T11:20:13.870Z,9.10
2023-03-01T11:23:00.428Z,9.10
2023-03-01T11:25:33.791Z,9.10
2023-03-01T11:28:05.151Z,9.10
2023-03-01T11:30:46.558Z,9.10
2023-03-01T11:33:28.942Z,9.10
2023-03-01T11:36:06.657Z,9.10
2023-03-01T11:38:36.872Z,9.20
2023-03-01T11:41:17.824Z,9.10
2023-03-01T11:44:02.485Z,9.10
2023-03-01T11:46:33.088Z,9.10
2023-03-01T11:49:03.796Z,9.20
2023-03-01T11:51:43.506Z,9.20
2023-03-01T11:54:22.139Z,9.30
2023-03-01T11:57:01.062Z,9.40
2023-03-01T11:59:48.673Z,9.40
2023-03-01T12:02:46.395Z,9.50
2023-03-01T12:05:35.544Z,9.50
2023-03-01T12:08:09.269Z,9.60
2023-03-01T12:10:53.998Z,9.70
2023-03-01T12:13:58.705Z,9.70
2023-03-01T12:16:56.996Z,9.80
2023-03-01T12:19:46.144Z,9.80
2023-03-01T12:22:18.510Z,9.90
2023-03-01T12:25:04.886Z,9.90
2023-03-01T12:28:00.426Z,9.90
2023-03-01T12:31:01.542Z,9.90
2023-03-01T12:33:39.600Z,9.90
2023-03-01T12:36:09.618Z,9.90
2023-03-01T12:38:51.444Z,9.90
2023-03-01T12:41:34.757Z,9.90
2023-03-01T12:44:11.049Z,10.00
2023-03-01T12:47:08.328Z,9.90
2023-03-01T12:49:42.873Z,10.00
2023-03-01T12:52:19.958Z,10.00
2023-03-01T12:54:48.636Z,10.00
2023-03-01T12:57:26.743Z,10.10
2023-03-01T13:00:24.599Z,10.10
2023-03-01T13:03:11.662Z,10.10
2023-03-01T13:05:52.680Z,10.20
2023-03-01T13:08:34.000Z,10.20
2023-03-01T13:11:04.473Z,10.20
2023-03-01T13:13:32.331Z,10.30
2023-03-01T13:16:24.394Z,10.30
2023-03-01T13:19:08.509Z,10.30
2023-03-01T13:21:36.246Z,10.30
2023-03-01T13:24:03.758Z,10.30
2023-03-01T13:26:31.774Z,10.30
2023-03-01T13:29:01.653Z,10.30
2023-03-01T13:31:29.960Z,10.20
2023-03-01T13:34:02.393Z,10.20
2023-03-01T13:36:30.486Z,10.20
2023-03-01T13:39:00.599Z,10.20
2023-03-01T13:41:40.235Z,10.20
2023-03-01T13:44:35.413Z,10.30
2023-03-01T13:47:13.981Z,10.30
2023-03-01T13:49:51.635Z,10.30
2023-03-01T13:52:41.466Z,10.30
2023-03-01T13:55:15.953Z,10.20
2023-03-01T13:57:48.146Z,10.30
2023-03-01T14:00:29.445Z,10.30
2023-03-01T14:03:06.484Z,10.30
2023-03-01T14:05:35.126Z,10.30
2023-03-01T14:08:06.622Z,10.30
2023-03-01T14:10:48.313Z,10.30
2023-03-01T14:13:25.982Z,10.30
2023-03-01T14:16:16.917Z,10.30
2023-03-01T14:19:34.798Z,10.40
2023-03-01T14:22:17.875Z,10.40
2023-03-01T14:24:50.218Z,10.40
2023-03-01T14:27:18.426Z,10.40
2023-03-01T14:29:56.396Z,10.40
2023-03-01T14:32:27.840Z,10.40
2023-03-01T14:34:55.397Z,10.30
2023-03-01T14:37:29.084Z,10.30
2023-03-01T14:39:58.862Z,10.30
2023-03-01T14:42:35.068Z,10.30
2023-03-01T14:45:05.241Z,10.30
2023-03-01T14:47:35.858Z,10.30
2023-03-01T14:50:26.605Z,10.40
2023-03-01T14:53:01.242Z,10.40
2023-03-01T14:55:45.140Z,10.40
2023-03-01T14:58:20.066Z,10.30
2023-03-01T15:01:02.764Z,10.30
2023-03-01T15:03:56.479Z,10.20
2023-03-01T15:06:24.687Z,10.10
2023-03-01T15:08:55.452Z,10.00
2023-03-01T15:11:30.284Z,9.90
2023-03-01T15:13:58.720Z,9.80
2023-03-01T15:16:35.029Z,9.70
2023-03-01T15:19:05.972Z,9.60
2023-03-01T15:21:50.249Z,9.50
2023-03-01T15:24:28.589Z,9.40
2023-03-01T15:27:07.803Z,9.40
2023-03-01T15:29:41.321Z,9.30
2023-03-01T15:32:33.810Z,9.20
2023-03-01T15:35:22.857Z,9.10
2023-03-01T15:37:50.721Z,9.10
2023-03-01T15:40:32.747Z,9.00
2023-03-01T15:43:02.095Z,9.00
2023-03-01T15:45:32.454Z,9.00
2023-03-01T15:48:06.539Z,8.90
2023-03-01T15:50:36.838Z,8.90
2023-03-01T15:53:08.427Z,8.80
2023-03-01T15:55:35.866Z,8.80
2023-03-01T15:58:21.641Z,8.70
2023-03-01T16:01:00.854Z,8.70
2023-03-01T16:03:29.377Z,8.60
2023-03-01T16:05:56.839Z,8.60
2023-03-01T16:08:24.339Z,8.50
2023-03-01T16:10:52.457Z,8.50
2023-03-01T16:13:20.189Z,8.30
2023-03-01T16:15:48.066Z,8.30
2023-03-01T16:18:15.495Z,8.20
2023-03-01T16:20:43.216Z,8.20
2023-03-01T16:23:12.016Z,8.10
2023-03-01T16:25:39.578Z,8.10
2023-03-01T16:28:10.053Z,8.10
2023-03-01T16:30:40.096Z,8.00
2023-03-01T16:33:24.512Z,8.00
2023-03-01T16:35:56.310Z,7.90
2023-03-01T16:38:23.838Z,7.90
2023-03-01T16:40:52.719Z,7.80
2023-03-01T16:43:20.196Z,7.80
2023-03-01T16:45:47.825Z,7.70
2023-03-01T16:48:15.908Z,7.70
2023-03-01T16:50:43.472Z,7.60
2023-03-01T16:53:11.477Z,7.60
2023-03-01T16:55:46.198Z,7.50
2023-03-01T16:58:14.031Z,7.50
2023-03-01T17:00:41.475Z,7.40
2023-03-01T17:03:08.974Z,7.30
2023-03-01T17:05:36.416Z,7.20
2023-03-01T17:08:04.061Z,7.20
2023-03-01T17:10:31.400Z,7.10
2023-03-01T17:12:58.818Z,7.10
2023-03-01T17:15:26.311Z,7.00
2023-03-01T17:17:53.866Z,7.00
2023-03-01T17:20:21.376Z,6.90
2023-03-01T17:22:48.742Z,6.80
2023-03-01T17:25:16.142Z,6.80
2023-03-01T17:27:43.624Z,6.70
2023-03-01T17:30:14.157Z,6.70
2023-03-01T17:32:41.904Z,6.60
2023-03-01T17:35:12.129Z,6.50
2023-03-01T17:37:40.421Z,6.50
2023-03-01T17:40:08.426Z,6.40
2023-03-01T17:42:35.881Z,6.40
2023-03-01T17:45:03.633Z,6.30
2023-03-01T17:47:31.365Z,6.30
2023-03-01T17:49:58.801Z,6.20
2023-03-01T17:52:26.599Z,6.20
2023-03-01T17:54:54.259Z,6.10
2023-03-01T17:57:21.646Z,6.10
2023-03-01T17:59:49.314Z,6.10
2023-03-01T18:02:16.658Z,6.00
2023-03-01T18:04:44.099Z,6.00
2023-03-01T18:07:11.523Z,5.90
2023-03-01T18:09:38.971Z,5.90
2023-03-01T18:12:06.958Z,5.90
2023-03-01T18:14:34.417Z,5.80
2023-03-01T18:17:11.631Z,5.80
2023-03-01T18:19:41.285Z,5.80
2023-03-01T18:22:08.893Z,5.70
2023-03-01T18:24:37.326Z,5.70
2023-03-01T18:27:05.062Z,5.70
2023-03-01T18:29:32.567Z,5.60
2023-03-01T18:31:59.975Z,5.60
2023-03-01T18:34:28.688Z,5.50
2023-03-01T18:37:08.751Z,5.50
2023-03-01T18:39:37.383Z,5.40
2023-03-01T18:42:04.966Z,5.40
2023-03-01T18:44:32.467Z,5.30
2023-03-01T18:46:59.882Z,5.20
2023-03-01T18:49:27.226Z,5.10
2023-03-01T18:51:55.454Z,5.00
2023-03-01T18:54:22.833Z,4.90
2023-03-01T18:56:50.392Z,4.80
2023-03-01T18:59:17.939Z,4.70
2023-03-01T19:01:45.426Z,4.70
2023-03-01T19:04:13.375Z,4.60
2023-03-01T19:06:40.732Z,4.50
2023-03-01T19:09:09.340Z,4.40
2023-03-01T19:11:37.435Z,4.40
2023-03-01T19:14:05.202Z,4.30
2023-03-01T19:16:34.261Z,4.20
2023-03-01T19:19:05.544Z,4.20
2023-03-01T19:21:34.002Z,4.10
2023-03-01T19:24:02.568Z,4.10
2023-03-01T19:26:30.918Z,4.00
2023-03-01T19:28:59.251Z,4.00
2023-03-01T19:31:29.294Z,3.90
2023-03-01T19:34:10.350Z,3.90
2023-03-01T19:36:43.615Z,3.90
2023-03-01T19:39:13.435Z,3.80
2023-03-01T19:41:42.307Z,3.80
2023-03-01T19:44:10.819Z,3.70
2023-03-01T19:46:38.765Z,3.70
2023-03-01T19:49:06.627Z,3.70
2023-03-01T19:51:36.303Z,3.60
2023-03-01T19:54:06.064Z,3.60
2023-03-01T19:56:34.579Z,3.50
2023-03-01T19:59:04.239Z,3.50
2023-03-01T20:01:34.083Z,3.50
2023-03-01T20:04:03.007Z,3.50
2023-03-01T20:06:30.932Z,3.40
2023-03-01T20:08:59.578Z,3.40
2023-03-01T20:11:29.744Z,3.40
2023-03-01T20:13:57.525Z,3.30
2023-03-01T20:16:26.775Z,3.30
2023-03-01T20:18:54.663Z,3.20
2023-03-01T20:21:24.623Z,3.20
2023-03-01T20:23:52.636Z,3.20
2023-03-01T20:26:22.531Z,3.20
2023-03-01T20:28:52.233Z,3.20
2023-03-01T20:31:21.583Z,3.20
2023-03-01T20:33:49.076Z,3.20
2023-03-01T20:36:16.509Z,3.20
2023-03-01T20:38:43.746Z,3.10
2023-03-01T20:41:13.221Z,3.10
2023-03-01T20:43:43.682Z,3.10
2023-03-01T20:46:13.103Z,3.10
2023-03-01T20:48:42.942Z,3.10
2023-03-01T20:51:12.098Z,3.10
2023-03-01T20:53:40.287Z,3.10
2023-03-01T20:56:13.018Z,3.10
2023-03-01T20:58:41.748Z,3.10
2023-03-01T21:01:10.250Z,3.00
2023-03-01T21:03:37.724Z,3.00
2023-03-01T21:06:08.756Z,3.00
2023-03-01T21:08:36.310Z,3.00
2023-03-01T21:11:06.281Z,3.00
2023-03-01T21:13:34.486Z,3.00
2023-03-01T21:16:07.682Z,3.00
2023-03-01T21:18:36.789Z,3.00
2023-03-01T21:21:10.680Z,3.00
2023-03-01T21:23:40.342Z,3.00
2023-03-01T21:26:19.751Z,3.00
2023-03-01T21:28:48.209Z,3.00
2023-03-01T21:31:18.405Z,3.00
2023-03-01T21:33:48.871Z,2.90
2023-03-01T21:36:17.347Z,3.00
2023-03-01T21:38:47.464Z,3.00
2023-03-01T21:41:21.028Z,3.00
2023-03-01T21:43:50.510Z,3.00
2023-03-01T21:46:20.868Z,3.10
2023-03-01T21:48:49.383Z,3.10
2023-03-01T21:51:18.832Z,3.20
2023-03-01T21:53:46.730Z,3.30
2023-03-01T21:56:23.469Z,3.40
2023-03-01T21:58:51.466Z,3.60
2023-03-01T22:01:21.784Z,3.70
2023-03-01T22:03:49.182Z,3.80
2023-03-01T22:06:22.943Z,3.90
2023-03-01T22:08:55.143Z,4.00
2023-03-01T22:11:23.029Z,4.00
2023-03-01T22:13:52.190Z,4.20
2023-03-01T22:16:22.220Z,4.20
2023-03-01T22:18:49.555Z,4.20
2023-03-01T22:21:18.023Z,4.20
2023-03-01T22:23:45.626Z,4.20
2023-03-01T22:26:25.138Z,4.20
2023-03-01T22:28:54.223Z,4.20
2023-03-01T22:31:21.608Z,4.30
2023-03-01T22:33:49.570Z,4.30
2023-03-01T22:36:17.114Z,4.30
2023-03-01T22:38:44.791Z,4.30
2023-03-01T22:41:12.556Z,4.40
2023-03-01T22:43:40.114Z,4.40
2023-03-01T22:46:17.018Z,4.40
2023-03-01T22:48:45.374Z,4.50
2023-03-01T22:51:26.123Z,4.50
2023-03-01T22:53:53.742Z,4.50
2023-03-01T22:56:25.151Z,4.50
2023-03-01T22:58:52.643Z,4.60
2023-03-01T23:01:23.328Z,4.60
2023-03-01T23:03:51.136Z,4.60
2023-03-01T23:06:20.069Z,4.50
2023-03-01T23:08:52.717Z,4.50
2023-03-01T23:11:21.332Z,4.30
2023-03-01T23:13:49.086Z,4.20
2023-03-01T23:16:17.669Z,4.10
2023-03-01T23:18:45.334Z,4.00
2023-03-01T23:21:15.745Z,4.00
2023-03-01T23:23:44.257Z,3.90
2023-03-01T23:26:11.668Z,3.80
2023-03-01T23:28:42.353Z,3.70
2023-03-01T23:31:13.720Z,3.60
2023-03-01T23:33:44.268Z,3.60
2023-03-01T23:36:19.159Z,3.50
2023-03-01T23:38:48.165Z,3.50
2023-03-01T23:41:18.317Z,3.50
2023-03-01T23:43:46.704Z,3.60
2023-03-01T23:46:16.128Z,3.60
2023-03-01T23:48:44.336Z,3.60
2023-03-01T23:51:12.170Z,3.70
2023-03-01T23:53:53.976Z,3.70
2023-03-01T23:56:29.990Z,3.80
2023-03-01T23:59:11.764Z,3.80
